Time;durP1;ratioP1;P1;durP2;ratioP2;P2;SDS_P1;SDS_P2;PMS_P1;PMS_P2;Temp;Humidity;BMP_temperature;BMP_pressure;BME280_temperature;BME280_humidity;BME280_pressure;Samples;Min_cycle;Max_cycle;Signal;HPM_P1;HPM_P2
2024/03/10 00:01:10;;;;;;;14.43;11.07;;;;;;;;;;10453752;27;20104;-63
2024/03/10 00:06:08;;;;;;;16.73;12.15;;;;;;;;;;10450590;27;20089;-63
2024/03/10 00:11:06;;;;;;;13.60;11.50;;;;;;;;;;10449163;27;20119;-62
2024/03/10 00:16:04;;;;;;;17.73;12.75;;;;;;;;;;10446827;27;20077;-62
2024/03/10 00:21:05;;;;;;;16.10;11.68;;;;;;;;;;10454205;27;20086;-63
2024/03/10 00:26:05;;;;;;;15.55;11.57;;;;;;;;;;10481056;27;20078;-62
2024/03/10 00:31:04;;;;;;;11.93;10.38;;;;;;;;;;10475598;27;20071;-62
2024/03/10 00:36:05;;;;;;;14.40;11.90;;;;;;;;;;10458338;27;20105;-63
2024/03/10 00:41:04;;;;;;;13.43;11.05;;;;;;;;;;10476761;27;20078;-62
2024/03/10 00:46:04;;;;;;;15.52;11.73;;;;;;;;;;10472366;27;20081;-63
2024/03/10 00:51:02;;;;;;;12.63;11.27;;;;;;;;;;10471155;27;20518;-63
2024/03/10 00:56:02;;;;;;;14.88;11.15;;;;;;;;;;10461712;27;20066;-64
2024/03/10 01:01:00;;;;;;;12.30;10.90;;;;;;;;;;10460497;27;20066;-62
2024/03/10 01:05:58;;;;;;;13.70;11.57;;;;;;;;;;10463629;27;20073;-62
2024/03/10 01:10:56;;;;;;;15.10;11.10;;;;;;;;;;10462041;27;20090;-62
2024/03/10 01:15:56;;;;;;;14.23;12.00;;;;;;;;;;10459924;27;20182;-63
2024/03/10 01:20:54;;;;;;;12.30;11.02;;;;;;;;;;10452156;27;20067;-62
2024/03/10 01:25:53;;;;;;;13.75;11.60;;;;;;;;;;10455526;27;20496;-62
2024/03/10 01:30:51;;;;;;;15.85;12.02;;;;;;;;;;10456586;27;20479;-62
2024/03/10 01:35:51;;;;;;;12.68;11.00;;;;;;;;;;10441058;27;20070;-63
2024/03/10 01:40:49;;;;;;;13.02;11.23;;;;;;;;;;10451423;27;20063;-63
2024/03/10 01:45:49;;;;;;;12.55;10.93;;;;;;;;;;10445607;27;20074;-63
2024/03/10 01:50:47;;;;;;;13.77;11.32;;;;;;;;;;10444732;27;20078;-63
2024/03/10 01:55:48;;;;;;;12.18;10.90;;;;;;;;;;10440924;27;20043;-64
2024/03/10 02:00:50;;;;;;;11.60;10.40;;;;;;;;;;10444059;27;20078;-63
2024/03/10 02:05:49;;;;;;;14.38;11.45;;;;;;;;;;10440901;27;20601;-63
2024/03/10 02:10:50;;;;;;;14.45;12.63;;;;;;;;;;10451200;27;20070;-63
2024/03/10 02:15:59;;;;;;;20.05;15.18;;;;;;;;;;10473304;27;20529;-63
2024/03/10 02:20:57;;;;;;;17.33;14.10;;;;;;;;;;10469427;27;20067;-63
2024/03/10 02:25:59;;;;;;;18.90;14.02;;;;;;;;;;10466216;27;20082;-63
2024/03/10 02:30:57;;;;;;;17.70;14.93;;;;;;;;;;10464023;27;20074;-62
2024/03/10 02:51:52;;;;;;;15.63;12.98;;;;;;;;;;10462779;27;20472;-63
2024/03/10 02:56:51;;;;;;;14.60;12.30;;;;;;;;;;10463123;27;20072;-63
2024/03/10 03:01:49;;;;;;;13.68;11.45;;;;;;;;;;10459633;27;20519;-63
2024/03/10 03:06:48;;;;;;;14.45;11.65;;;;;;;;;;10456014;27;20058;-63
2024/03/10 03:11:46;;;;;;;13.50;11.38;;;;;;;;;;10453927;27;20082;-63
2024/03/10 03:16:46;;;;;;;14.50;12.30;;;;;;;;;;10452580;27;20042;-62
2024/03/10 03:21:45;;;;;;;14.88;11.57;;;;;;;;;;10451475;27;20070;-62
2024/03/10 03:26:43;;;;;;;14.07;12.57;;;;;;;;;;10449585;27;20078;-62
2024/03/10 03:31:42;;;;;;;13.90;12.10;;;;;;;;;;10448861;27;20516;-62
2024/03/10 03:36:43;;;;;;;12.88;11.50;;;;;;;;;;10428970;27;20075;-61
2024/03/10 03:41:41;;;;;;;15.60;12.50;;;;;;;;;;10442135;27;20081;-62
2024/03/10 03:46:39;;;;;;;16.58;12.23;;;;;;;;;;10439468;27;20532;-61
2024/03/10 03:51:37;;;;;;;13.25;11.52;;;;;;;;;;10435180;27;20073;-62
2024/03/10 03:56:37;;;;;;;15.55;12.50;;;;;;;;;;10470122;27;20086;-62
2024/03/10 04:01:35;;;;;;;14.35;12.13;;;;;;;;;;10466323;27;20077;-62
2024/03/10 04:06:33;;;;;;;14.57;12.35;;;;;;;;;;10465188;27;20063;-62
2024/03/10 04:11:31;;;;;;;14.82;12.15;;;;;;;;;;10462441;27;20078;-62
2024/03/10 04:16:31;;;;;;;13.25;11.27;;;;;;;;;;10460395;27;20089;-63
2024/03/10 04:21:29;;;;;;;14.77;12.55;;;;;;;;;;10460744;27;20495;-62
2024/03/10 04:26:28;;;;;;;19.42;12.43;;;;;;;;;;10461817;27;20077;-62
2024/03/10 04:31:26;;;;;;;14.98;12.27;;;;;;;;;;10464638;27;20542;-62
2024/03/10 04:36:28;;;;;;;15.52;12.88;;;;;;;;;;10465462;27;20073;-62
2024/03/10 04:41:27;;;;;;;16.42;13.18;;;;;;;;;;10464339;27;20070;-61
2024/03/10 04:46:27;;;;;;;16.55;13.65;;;;;;;;;;10452247;27;20070;-62
2024/03/10 04:51:26;;;;;;;17.27;14.05;;;;;;;;;;10455664;27;20082;-62
2024/03/10 04:56:25;;;;;;;17.95;15.18;;;;;;;;;;10460336;27;20081;-61
2024/03/10 05:01:23;;;;;;;16.38;13.90;;;;;;;;;;10458992;27;20082;-62
2024/03/10 05:06:22;;;;;;;19.40;15.05;;;;;;;;;;10455734;27;20519;-63
2024/03/10 05:11:21;;;;;;;17.40;15.25;;;;;;;;;;10436321;27;20079;-63
2024/03/10 05:16:21;;;;;;;20.77;16.25;;;;;;;;;;10453628;27;20082;-62
2024/03/10 05:21:19;;;;;;;16.55;13.70;;;;;;;;;;10444971;27;20070;-63
2024/03/10 05:26:17;;;;;;;25.10;18.77;;;;;;;;;;10451959;27;20066;-62
2024/03/10 05:31:27;;;;;;;24.20;18.40;;;;;;;;;;10450535;27;20082;-62
2024/03/10 05:36:26;;;;;;;23.63;17.92;;;;;;;;;;10445247;27;20075;-63
2024/03/10 05:41:24;;;;;;;20.60;15.77;;;;;;;;;;10439504;27;20490;-62
2024/03/10 05:46:22;;;;;;;19.45;13.93;;;;;;;;;;10440093;27;20059;-62
2024/03/10 05:51:23;;;;;;;15.02;13.02;;;;;;;;;;10420156;27;20521;-62
2024/03/10 05:56:21;;;;;;;16.52;13.88;;;;;;;;;;10435567;27;20063;-62
2024/03/10 06:01:23;;;;;;;14.60;13.00;;;;;;;;;;10423797;27;20066;-62
2024/03/10 06:06:23;;;;;;;28.00;18.08;;;;;;;;;;10459346;27;20065;-61
2024/03/10 06:11:23;;;;;;;29.48;21.40;;;;;;;;;;10460721;27;20089;-62
2024/03/10 06:16:22;;;;;;;23.15;17.38;;;;;;;;;;10472909;27;20062;-61
2024/03/10 06:26:38;;;;;;;21.98;17.77;;;;;;;;;;10471294;27;20074;-62
2024/03/10 06:31:38;;;;;;;22.58;17.15;;;;;;;;;;10463362;27;20092;-61
2024/03/10 06:36:37;;;;;;;28.58;20.08;;;;;;;;;;10455263;27;20067;-62
2024/03/10 06:41:35;;;;;;;23.25;19.45;;;;;;;;;;10459267;27;20079;-62
2024/03/10 06:46:35;;;;;;;23.20;19.45;;;;;;;;;;10451610;27;20066;-63
2024/03/10 06:51:33;;;;;;;26.52;19.70;;;;;;;;;;10442874;27;20088;-62
2024/03/10 06:56:32;;;;;;;28.23;21.40;;;;;;;;;;10447201;27;20066;-62
2024/03/10 07:01:31;;;;;;;27.83;23.73;;;;;;;;;;10460235;27;20062;-61
2024/03/10 07:06:30;;;;;;;29.20;21.80;;;;;;;;;;10472449;27;20135;-61
2024/03/10 07:11:29;;;;;;;23.95;20.38;;;;;;;;;;10461204;27;20082;-61
2024/03/10 07:16:27;;;;;;;25.67;19.80;;;;;;;;;;10468170;27;20088;-62
2024/03/10 07:21:25;;;;;;;25.30;20.58;;;;;;;;;;10468749;27;20073;-62
2024/03/10 07:26:25;;;;;;;26.20;20.33;;;;;;;;;;10466939;27;20097;-62
2024/03/10 07:31:25;;;;;;;29.77;23.23;;;;;;;;;;10461527;27;20082;-63
2024/03/10 07:36:23;;;;;;;29.38;20.90;;;;;;;;;;10444747;27;20062;-63
2024/03/10 07:41:22;;;;;;;26.98;20.98;;;;;;;;;;10452718;27;20066;-63
2024/03/10 07:46:22;;;;;;;21.35;17.42;;;;;;;;;;10446808;27;20074;-63
2024/03/10 07:51:20;;;;;;;22.00;18.42;;;;;;;;;;10445762;27;20588;-63
2024/03/10 07:56:19;;;;;;;23.42;20.92;;;;;;;;;;10443114;27;20082;-62
2024/03/10 08:01:17;;;;;;;26.98;21.65;;;;;;;;;;10441852;27;20075;-63
2024/03/10 08:06:17;;;;;;;22.45;20.10;;;;;;;;;;10449542;27;20070;-64
2024/03/10 08:11:15;;;;;;;37.28;27.50;;;;;;;;;;10452095;27;20078;-63
2024/03/10 08:16:14;;;;;;;28.08;21.73;;;;;;;;;;10452574;27;20080;-64
2024/03/10 08:21:13;;;;;;;17.70;15.77;;;;;;;;;;10452775;27;20070;-63
2024/03/10 08:26:12;;;;;;;29.27;21.90;;;;;;;;;;10451722;27;20105;-63
2024/03/10 08:31:12;;;;;;;37.78;27.70;;;;;;;;;;10451375;27;20082;-64
2024/03/10 08:36:10;;;;;;;50.90;37.42;;;;;;;;;;10426432;27;20507;-63
2024/03/10 08:41:09;;;;;;;28.58;24.65;;;;;;;;;;10444864;27;20071;-64
2024/03/10 08:46:11;;;;;;;30.10;23.33;;;;;;;;;;10458839;27;20081;-63
2024/03/10 08:51:09;;;;;;;30.08;24.02;;;;;;;;;;10475295;27;20082;-64
2024/03/10 08:56:08;;;;;;;33.15;23.17;;;;;;;;;;10473250;27;20066;-64
2024/03/10 09:01:06;;;;;;;29.20;22.83;;;;;;;;;;10473853;27;20097;-62
2024/03/10 09:06:07;;;;;;;41.33;28.67;;;;;;;;;;10471554;27;20085;-62
2024/03/10 09:11:06;;;;;;;26.75;22.58;;;;;;;;;;10470551;27;20050;-62
2024/03/10 09:16:06;;;;;;;25.45;20.17;;;;;;;;;;10471158;27;20493;-63
2024/03/10 09:21:07;;;;;;;21.15;18.15;;;;;;;;;;10471991;27;20066;-63
2024/03/10 09:26:06;;;;;;;18.35;15.82;;;;;;;;;;10470939;27;20074;-62
2024/03/10 09:31:07;;;;;;;20.38;17.27;;;;;;;;;;10465451;27;20043;-62
2024/03/10 09:36:08;;;;;;;18.80;14.80;;;;;;;;;;10452805;27;20085;-62
2024/03/10 09:41:09;;;;;;;21.95;16.08;;;;;;;;;;10466466;27;20066;-62
2024/03/10 09:46:10;;;;;;;20.95;16.70;;;;;;;;;;10467044;27;20073;-61
2024/03/10 09:51:11;;;;;;;18.92;13.93;;;;;;;;;;10462605;27;20062;-63
2024/03/10 09:56:12;;;;;;;18.65;15.60;;;;;;;;;;10460403;27;20081;-63
2024/03/10 10:01:14;;;;;;;17.17;13.82;;;;;;;;;;10452241;27;20833;-63
2024/03/10 10:06:16;;;;;;;15.55;13.85;;;;;;;;;;10425802;27;20081;-63
2024/03/10 10:11:18;;;;;;;20.95;17.52;;;;;;;;;;10443417;27;20105;-65
2024/03/10 10:16:17;;;;;;;13.50;11.98;;;;;;;;;;10441836;27;20071;-62
2024/03/10 10:21:15;;;;;;;15.00;12.77;;;;;;;;;;10441598;27;20067;-64
2024/03/10 10:26:13;;;;;;;12.02;10.82;;;;;;;;;;10440684;27;20082;-62
2024/03/10 10:31:15;;;;;;;15.65;13.13;;;;;;;;;;10414188;27;20051;-63
2024/03/10 10:36:14;;;;;;;13.10;11.80;;;;;;;;;;10447449;27;20086;-62
2024/03/10 10:41:12;;;;;;;24.33;12.68;;;;;;;;;;10472992;27;20090;-62
2024/03/10 10:46:12;;;;;;;24.60;15.25;;;;;;;;;;10474891;27;20074;-62
2024/03/10 10:51:14;;;;;;;22.20;12.13;;;;;;;;;;10467680;27;20105;-63
2024/03/10 10:56:14;;;;;;;13.75;12.35;;;;;;;;;;10450429;27;20074;-63
2024/03/10 11:01:12;;;;;;;16.08;14.38;;;;;;;;;;10461299;27;20070;-62
2024/03/10 11:06:30;;;;;;;15.98;12.32;;;;;;;;;;10456971;27;20070;-62
2024/03/10 11:11:45;;;;;;;16.95;12.80;;;;;;;;;;10459674;27;20082;-62
2024/03/10 11:16:44;;;;;;;14.00;12.50;;;;;;;;;;10452576;27;20085;-63
2024/03/10 11:21:44;;;;;;;14.63;12.55;;;;;;;;;;10460086;27;20211;-61
2024/03/10 11:26:44;;;;;;;13.85;11.32;;;;;;;;;;10442473;27;20063;-61
2024/03/10 11:31:44;;;;;;;14.30;12.88;;;;;;;;;;10436456;27;20081;-63
2024/03/10 11:36:46;;;;;;;12.05;10.55;;;;;;;;;;10442037;27;20085;-61
2024/03/10 11:41:47;;;;;;;15.63;13.35;;;;;;;;;;10453222;27;20094;-60
2024/03/10 11:46:46;;;;;;;20.08;15.55;;;;;;;;;;10437255;27;20081;-61
2024/03/10 11:51:46;;;;;;;19.50;14.73;;;;;;;;;;10448388;27;20817;-63
2024/03/10 11:56:45;;;;;;;16.70;11.68;;;;;;;;;;10446687;27;20081;-62
2024/03/10 12:01:44;;;;;;;12.95;11.57;;;;;;;;;;10448465;27;20062;-62
2024/03/10 12:06:43;;;;;;;25.75;20.35;;;;;;;;;;10449744;27;20074;-63
2024/03/10 12:11:43;;;;;;;17.17;12.73;;;;;;;;;;10445222;27;20807;-63
2024/03/10 12:16:47;;;;;;;15.82;11.82;;;;;;;;;;10441963;27;20071;-63
2024/03/10 12:21:46;;;;;;;12.55;11.35;;;;;;;;;;10444756;27;20078;-62
2024/03/10 12:26:48;;;;;;;15.05;11.40;;;;;;;;;;10462975;27;20120;-62
2024/03/10 12:31:48;;;;;;;12.95;11.38;;;;;;;;;;10465660;27;20077;-63
2024/03/10 12:36:48;;;;;;;12.88;10.63;;;;;;;;;;10466127;27;20066;-62
2024/03/10 12:41:48;;;;;;;16.58;14.77;;;;;;;;;;10480222;27;20522;-62
2024/03/10 12:46:46;;;;;;;13.13;11.80;;;;;;;;;;10469571;27;20074;-62
2024/03/10 12:51:46;;;;;;;15.10;13.43;;;;;;;;;;10475393;27;20078;-63
2024/03/10 12:56:45;;;;;;;14.70;13.20;;;;;;;;;;10463077;27;20579;-62
2024/03/10 13:01:44;;;;;;;13.55;11.85;;;;;;;;;;10464588;27;20652;-63
2024/03/10 13:06:44;;;;;;;17.92;14.50;;;;;;;;;;10449856;27;20075;-63
2024/03/10 13:11:42;;;;;;;17.27;14.10;;;;;;;;;;10433404;27;20093;-62
2024/03/10 13:16:41;;;;;;;13.10;11.77;;;;;;;;;;10435973;27;20069;-60
2024/03/10 13:21:43;;;;;;;15.25;13.75;;;;;;;;;;10447989;27;20070;-63
2024/03/10 13:26:42;;;;;;;14.68;11.07;;;;;;;;;;10447360;27;20086;-63
2024/03/10 13:31:42;;;;;;;19.55;14.63;;;;;;;;;;10453922;27;20137;-62
2024/03/10 13:36:43;;;;;;;17.25;13.13;;;;;;;;;;10446621;27;20078;-63
2024/03/10 13:41:46;;;;;;;16.10;13.85;;;;;;;;;;10446537;27;20148;-64
2024/03/10 13:46:47;;;;;;;14.90;11.68;;;;;;;;;;10415697;27;20444;-62
2024/03/10 13:51:49;;;;;;;19.38;14.05;;;;;;;;;;10439959;27;20070;-62
2024/03/10 13:56:47;;;;;;;377.05;335.05;;;;;;;;;;10429416;27;20078;-62
2024/03/10 14:01:49;;;;;;;24.17;19.60;;;;;;;;;;10440174;27;20077;-61
2024/03/10 14:06:52;;;;;;;13.82;11.77;;;;;;;;;;10435298;27;20059;-62
2024/03/10 14:11:53;;;;;;;27.80;18.13;;;;;;;;;;10427758;27;20086;-62
2024/03/10 14:16:52;;;;;;;13.02;9.65;;;;;;;;;;10432609;27;20074;-61
2024/03/10 14:21:55;;;;;;;50.97;40.63;;;;;;;;;;10413201;27;20698;-62
2024/03/10 14:27:04;;;;;;;42.38;28.75;;;;;;;;;;10436400;27;20063;-61
2024/03/10 14:32:11;;;;;;;12.40;11.05;;;;;;;;;;10447741;27;20078;-62
2024/03/10 14:37:09;;;;;;;;;;;;;;;;;;10445305;27;20508;-63
2024/03/10 14:42:22;;;;;;;13.57;12.10;;;;;;;;;;10442433;27;19961;-63
2024/03/10 14:47:28;;;;;;;13.45;12.05;;;;;;;;;;10447866;27;20089;-62
2024/03/10 14:52:30;;;;;;;16.55;12.50;;;;;;;;;;10437038;27;20511;-62
2024/03/10 14:57:28;;;;;;;12.82;11.60;;;;;;;;;;10440480;27;20067;-62
2024/03/10 15:02:28;;;;;;;14.20;12.23;;;;;;;;;;10427351;27;20062;-62
2024/03/10 15:07:26;;;;;;;108.13;74.90;;;;;;;;;;10427872;27;20067;-61
2024/03/10 15:12:25;;;;;;;24.67;20.00;;;;;;;;;;10426126;27;20100;-63
2024/03/10 15:17:23;;;;;;;19.40;16.90;;;;;;;;;;10429547;27;20078;-63
2024/03/10 15:22:23;;;;;;;19.00;15.35;;;;;;;;;;10423613;27;20829;-63
2024/03/10 15:27:21;;;;;;;26.25;16.77;;;;;;;;;;10418908;27;20067;-63
2024/03/10 15:32:20;;;;;;;21.70;16.17;;;;;;;;;;10421516;27;20066;-62
2024/03/10 15:37:19;;;;;;;17.88;15.95;;;;;;;;;;10421943;27;20570;-62
2024/03/10 15:42:19;;;;;;;25.42;19.42;;;;;;;;;;10425171;27;20505;-62
2024/03/10 15:47:20;;;;;;;26.35;19.77;;;;;;;;;;10421830;27;20454;-62
2024/03/10 15:52:19;;;;;;;25.30;18.85;;;;;;;;;;10422976;27;20535;-61
2024/03/10 15:57:19;;;;;;;21.73;17.15;;;;;;;;;;10424535;27;20641;-62
2024/03/10 16:02:28;;;;;;;25.00;20.10;;;;;;;;;;10425786;27;20066;-62
2024/03/10 16:07:27;;;;;;;25.52;17.40;;;;;;;;;;10419272;27;20078;-62
2024/03/10 16:12:28;;;;;;;26.63;18.52;;;;;;;;;;10423000;27;20070;-62
2024/03/10 16:17:29;;;;;;;20.67;15.57;;;;;;;;;;10415325;27;20075;-63
2024/03/10 16:22:34;;;;;;;19.25;16.08;;;;;;;;;;10412846;27;20070;-62
2024/03/10 16:27:40;;;;;;;18.35;13.60;;;;;;;;;;10428405;27;20079;-61
2024/03/10 16:32:41;;;;;;;17.48;12.82;;;;;;;;;;10428109;27;20078;-60
2024/03/10 16:38:00;;;;;;;54.03;34.78;;;;;;;;;;10424803;27;20075;-62
2024/03/10 16:43:29;;;;;;;13.40;11.05;;;;;;;;;;10419180;27;20079;-62
2024/03/10 16:48:28;;;;;;;12.63;11.10;;;;;;;;;;10311376;27;20156;-62
2024/03/10 16:53:29;;;;;;;16.90;12.93;;;;;;;;;;10281705;28;20077;-62
2024/03/10 16:58:41;;;;;;;17.85;10.80;;;;;;;;;;10279022;28;20072;-62
2024/03/10 17:03:58;;;;;;;14.35;11.43;;;;;;;;;;10279039;28;20069;-62
2024/03/10 17:09:19;;;;;;;14.23;11.55;;;;;;;;;;10283560;28;20065;-61
2024/03/10 17:14:18;;;;;;;15.65;12.15;;;;;;;;;;10276036;28;20080;-61
2024/03/10 17:19:18;;;;;;;16.45;13.98;;;;;;;;;;10277300;28;20065;-61
2024/03/10 17:24:17;;;;;;;16.40;14.10;;;;;;;;;;10273440;28;20072;-60
2024/03/10 17:29:15;;;;;;;24.55;16.80;;;;;;;;;;10278441;28;20076;-62
2024/03/10 17:34:15;;;;;;;25.73;18.10;;;;;;;;;;10278281;28;20529;-62
2024/03/10 17:39:14;;;;;;;35.45;25.55;;;;;;;;;;10279717;28;20289;-61
2024/03/10 17:44:13;;;;;;;36.03;26.08;;;;;;;;;;10285886;28;20060;-62
2024/03/10 17:49:11;;;;;;;41.97;28.35;;;;;;;;;;10283151;28;20068;-62
2024/03/10 17:54:14;;;;;;;33.60;23.88;;;;;;;;;;10281441;28;20073;-63
2024/03/10 17:59:12;;;;;;;20.83;17.20;;;;;;;;;;10281274;28;20076;-62
2024/03/10 18:04:11;;;;;;;14.68;13.10;;;;;;;;;;10277743;28;20072;-63
2024/03/10 18:09:09;;;;;;;15.95;12.10;;;;;;;;;;10279166;28;20075;-63
2024/03/10 18:14:09;;;;;;;10.90;9.38;;;;;;;;;;10278295;28;20656;-64
2024/03/10 18:19:09;;;;;;;12.82;10.93;;;;;;;;;;10276167;28;20064;-63
2024/03/10 18:24:09;;;;;;;11.45;10.27;;;;;;;;;;10276843;28;20095;-63
2024/03/10 18:29:09;;;;;;;11.93;8.82;;;;;;;;;;10273971;28;20069;-64
2024/03/10 18:34:10;;;;;;;14.25;11.27;;;;;;;;;;10272178;28;20069;-63
2024/03/10 18:39:09;;;;;;;11.30;9.98;;;;;;;;;;10277530;28;20065;-64
2024/03/10 18:44:09;;;;;;;20.63;13.43;;;;;;;;;;10288139;28;20789;-62
2024/03/10 18:49:07;;;;;;;11.75;8.82;;;;;;;;;;10274509;28;20079;-62
2024/03/10 18:54:06;;;;;;;11.93;8.77;;;;;;;;;;10277494;28;20061;-62
2024/03/10 18:59:08;;;;;;;15.90;9.48;;;;;;;;;;10276243;28;20143;-63
2024/03/10 19:04:09;;;;;;;14.60;12.07;;;;;;;;;;10276364;28;20505;-63
2024/03/10 19:09:10;;;;;;;14.55;11.93;;;;;;;;;;10274314;28;20076;-63
2024/03/10 19:14:10;;;;;;;13.43;9.80;;;;;;;;;;10271146;28;20534;-63
2024/03/10 19:19:11;;;;;;;10.82;7.30;;;;;;;;;;10272646;28;20068;-62
2024/03/10 19:24:09;;;;;;;8.57;7.40;;;;;;;;;;10266359;28;20076;-63
2024/03/10 19:29:08;;;;;;;8.70;7.00;;;;;;;;;;10274852;28;20060;-64
2024/03/10 19:34:07;;;;;;;9.25;7.40;;;;;;;;;;10274643;28;20075;-62
2024/03/10 19:39:06;;;;;;;9.77;8.77;;;;;;;;;;10271011;28;20076;-62
2024/03/10 19:44:05;;;;;;;13.93;9.48;;;;;;;;;;10273799;28;20099;-62
2024/03/10 19:49:04;;;;;;;11.25;9.98;;;;;;;;;;10276237;28;20064;-61
2024/03/10 19:54:02;;;;;;;11.50;10.35;;;;;;;;;;10278813;28;20072;-62
2024/03/10 19:59:02;;;;;;;10.13;9.15;;;;;;;;;;10284923;28;20127;-61
2024/03/10 20:04:03;;;;;;;10.60;9.50;;;;;;;;;;10280482;28;20590;-61
2024/03/10 20:09:03;;;;;;;13.82;10.75;;;;;;;;;;10285813;28;20080;-63
2024/03/10 20:14:06;;;;;;;13.38;10.35;;;;;;;;;;10296987;28;20076;-63
2024/03/10 20:19:05;;;;;;;12.02;10.90;;;;;;;;;;10289220;28;20107;-61
2024/03/10 20:24:04;;;;;;;14.43;10.95;;;;;;;;;;10296017;28;20064;-62
2024/03/10 20:29:03;;;;;;;14.63;12.85;;;;;;;;;;10283769;28;20699;-62
2024/03/10 20:34:03;;;;;;;15.57;12.32;;;;;;;;;;10280599;28;20068;-63
2024/03/10 20:39:03;;;;;;;14.32;12.35;;;;;;;;;;10285310;28;20075;-62
2024/03/10 20:44:03;;;;;;;17.13;13.27;;;;;;;;;;10282946;28;20064;-62
2024/03/10 20:49:03;;;;;;;16.65;11.90;;;;;;;;;;10283090;28;20087;-62
2024/03/10 20:54:03;;;;;;;15.30;12.38;;;;;;;;;;10280895;28;20064;-62
2024/03/10 20:59:01;;;;;;;15.07;13.43;;;;;;;;;;10279583;28;20076;-62
2024/03/10 21:03:59;;;;;;;19.33;14.02;;;;;;;;;;10281524;28;20060;-63
2024/03/10 21:08:59;;;;;;;15.25;13.52;;;;;;;;;;10280089;28;20494;-63
2024/03/10 21:13:57;;;;;;;15.38;12.20;;;;;;;;;;10283296;28;20079;-62
2024/03/10 21:18:56;;;;;;;13.70;12.30;;;;;;;;;;10285674;28;20526;-63
2024/03/10 21:23:54;;;;;;;18.73;12.85;;;;;;;;;;10278731;28;20061;-63
2024/03/10 21:28:54;;;;;;;13.98;12.50;;;;;;;;;;10282189;28;20063;-62
2024/03/10 21:33:53;;;;;;;13.55;12.13;;;;;;;;;;10280239;28;20060;-62
2024/03/10 21:38:51;;;;;;;13.00;11.70;;;;;;;;;;10280105;28;20083;-62
2024/03/10 21:43:51;;;;;;;14.48;13.07;;;;;;;;;;10279365;28;20131;-62
2024/03/10 21:48:52;;;;;;;13.90;12.60;;;;;;;;;;10280200;28;20465;-63
2024/03/10 21:53:52;;;;;;;18.40;13.75;;;;;;;;;;10281822;28;20337;-63
2024/03/10 21:58:51;;;;;;;14.32;12.85;;;;;;;;;;10278689;28;20522;-63
2024/03/10 22:03:51;;;;;;;16.98;13.77;;;;;;;;;;10293744;28;20480;-64
2024/03/10 22:08:49;;;;;;;15.32;13.77;;;;;;;;;;10292225;28;20053;-64
2024/03/10 22:13:48;;;;;;;14.27;12.85;;;;;;;;;;10285089;28;20077;-63
2024/03/10 22:18:47;;;;;;;13.85;12.45;;;;;;;;;;10281613;28;20516;-63
2024/03/10 22:23:46;;;;;;;13.95;12.30;;;;;;;;;;10285767;28;20072;-62
2024/03/10 22:28:45;;;;;;;16.88;12.57;;;;;;;;;;10281472;28;20487;-63
2024/03/10 22:33:44;;;;;;;13.65;12.10;;;;;;;;;;10280605;28;20532;-63
2024/03/10 22:38:43;;;;;;;14.63;12.43;;;;;;;;;;10287909;28;20103;-64
2024/03/10 22:43:44;;;;;;;13.25;11.95;;;;;;;;;;10288123;28;20061;-63
2024/03/10 22:48:42;;;;;;;15.82;12.20;;;;;;;;;;10289607;28;20458;-63
2024/03/10 22:53:41;;;;;;;14.20;12.63;;;;;;;;;;10298322;28;20068;-64
2024/03/10 22:58:40;;;;;;;14.73;13.07;;;;;;;;;;10282036;28;20073;-63
2024/03/10 23:03:42;;;;;;;12.82;11.52;;;;;;;;;;10286146;28;20069;-63
2024/03/10 23:08:41;;;;;;;14.40;12.07;;;;;;;;;;10298448;28;20076;-63
2024/03/10 23:13:39;;;;;;;13.38;12.02;;;;;;;;;;10291197;28;20073;-64
2024/03/10 23:18:43;;;;;;;12.90;11.60;;;;;;;;;;10293176;28;20068;-63
2024/03/10 23:23:41;;;;;;;12.75;11.10;;;;;;;;;;10294445;28;20069;-64
2024/03/10 23:28:39;;;;;;;12.90;10.77;;;;;;;;;;10292965;28;20072;-64
2024/03/10 23:33:38;;;;;;;14.32;11.52;;;;;;;;;;10293028;28;20060;-64
2024/03/10 23:38:38;;;;;;;13.43;11.27;;;;;;;;;;10290755;28;20493;-63
2024/03/10 23:43:37;;;;;;;15.65;12.40;;;;;;;;;;10293096;28;20068;-64
2024/03/10 23:48:35;;;;;;;12.10;10.90;;;;;;;;;;10291218;28;20068;-62
2024/03/10 23:53:33;;;;;;;12.55;10.82;;;;;;;;;;10295037;28;20079;-63
2024/03/10 23:58:36;;;;;;;12.05;10.90;;;;;;;;;;10290525;28;20080;-62
